Time;durP1;ratioP1;P1;durP2;ratioP2;P2;SDS_P1;SDS_P2;PMS_P1;PMS_P2;Temp;Humidity;BMP_temperature;BMP_pressure;BME280_temperature;BME280_humidity;BME280_pressure;Samples;Min_cycle;Max_cycle;Signal;HPM_P1;HPM_P2
2022/01/01 00:00:08;;;;;;;5.37;5.10;;;;;;;;;;4986917;28;20489;-78
2022/01/01 00:02:34;;;;;;;5.60;5.20;;;;;;;;;;4987774;28;20426;-73
2022/01/01 00:05:01;;;;;;;5.20;4.90;;;;;;;;;;4989856;28;20464;-75
2022/01/01 00:07:27;;;;;;;7.37;5.60;;;;;;;;;;4985606;28;20432;-74
2022/01/01 00:09:53;;;;;;;6.30;5.90;;;;;;;;;;4989128;28;20464;-73
2022/01/01 00:12:19;;;;;;;5.50;5.00;;;;;;;;;;4988801;28;20515;-77
2022/01/01 00:14:45;;;;;;;6.17;5.60;;;;;;;;;;4984732;28;20436;-73
2022/01/01 00:17:11;;;;;;;7.17;6.07;;;;;;;;;;4989300;28;20424;-73
2022/01/01 00:19:38;;;;;;;10.37;7.97;;;;;;;;;;4987473;28;20952;-77
2022/01/01 00:22:06;;;;;;;7.17;6.50;;;;;;;;;;4988153;28;20466;-73
2022/01/01 00:24:33;;;;;;;11.50;6.93;;;;;;;;;;4987928;28;20933;-73
2022/01/01 00:26:59;;;;;;;11.03;8.00;;;;;;;;;;4986358;28;20925;-73
2022/01/01 00:29:25;;;;;;;7.70;7.00;;;;;;;;;;4987758;28;20443;-74
2022/01/01 00:31:51;;;;;;;13.10;6.37;;;;;;;;;;4989244;28;21010;-76
2022/01/01 00:34:17;;;;;;;6.80;6.30;;;;;;;;;;4984716;28;21249;-78
2022/01/01 00:36:43;;;;;;;5.73;5.40;;;;;;;;;;4989178;28;20802;-73
2022/01/01 00:39:09;;;;;;;5.70;5.20;;;;;;;;;;4989569;28;20436;-73
2022/01/01 00:41:35;;;;;;;5.90;5.40;;;;;;;;;;4986153;28;20421;-73
2022/01/01 00:44:01;;;;;;;5.83;5.43;;;;;;;;;;4986713;28;20452;-73
2022/01/01 00:46:27;;;;;;;9.10;6.23;;;;;;;;;;4988640;28;20433;-73
2022/01/01 00:48:53;;;;;;;7.83;6.33;;;;;;;;;;4990690;28;20548;-77
2022/01/01 00:51:20;;;;;;;5.10;4.77;;;;;;;;;;4991733;28;20425;-73
2022/01/01 00:53:46;;;;;;;6.30;4.53;;;;;;;;;;4992012;28;20492;-73
2022/01/01 00:56:12;;;;;;;5.73;5.40;;;;;;;;;;4988525;28;20430;-74
2022/01/01 00:58:38;;;;;;;6.83;5.53;;;;;;;;;;4990167;28;20497;-76
2022/01/01 01:01:05;;;;;;;6.53;5.80;;;;;;;;;;4990153;28;20570;-73
2022/01/01 01:03:31;;;;;;;8.67;4.40;;;;;;;;;;4992473;28;20437;-76
2022/01/01 01:05:59;;;;;;;4.93;4.53;;;;;;;;;;4989772;28;20807;-76
2022/01/01 01:08:25;;;;;;;8.17;5.43;;;;;;;;;;4991320;28;20845;-78
2022/01/01 01:10:52;;;;;;;5.20;4.90;;;;;;;;;;4989038;28;20440;-78
2022/01/01 01:13:19;;;;;;;4.77;4.37;;;;;;;;;;4990744;28;20563;-73
2022/01/01 01:15:45;;;;;;;6.40;5.90;;;;;;;;;;4991226;28;20908;-75
2022/01/01 01:18:12;;;;;;;11.90;8.70;;;;;;;;;;4991110;28;20432;-73
2022/01/01 01:20:38;;;;;;;16.60;10.23;;;;;;;;;;4989765;28;20503;-74
2022/01/01 01:23:05;;;;;;;12.20;8.93;;;;;;;;;;4991171;28;20488;-71
2022/01/01 01:25:38;;;;;;;15.20;10.47;;;;;;;;;;4989039;28;20433;-71
2022/01/01 01:28:08;;;;;;;13.70;11.63;;;;;;;;;;4991107;28;20468;-71
2022/01/01 01:30:38;;;;;;;15.67;10.10;;;;;;;;;;4989921;28;20492;-73
2022/01/01 01:33:04;;;;;;;14.23;10.33;;;;;;;;;;4989814;28;20563;-74
2022/01/01 01:35:30;;;;;;;15.30;10.40;;;;;;;;;;4990495;28;20465;-76
2022/01/01 01:37:56;;;;;;;11.67;7.90;;;;;;;;;;4992145;28;21011;-73
2022/01/01 01:40:22;;;;;;;8.70;7.37;;;;;;;;;;4990254;28;20464;-77
2022/01/01 01:42:48;;;;;;;7.43;6.77;;;;;;;;;;4990752;28;20801;-79
2022/01/01 01:45:20;;;;;;;8.27;6.53;;;;;;;;;;4989135;28;20521;-78
2022/01/01 01:47:47;;;;;;;7.23;6.50;;;;;;;;;;4990301;28;20838;-73
2022/01/01 01:50:13;;;;;;;7.40;6.27;;;;;;;;;;4992340;28;20783;-77
2022/01/01 01:52:40;;;;;;;6.83;6.23;;;;;;;;;;4988173;28;20543;-77
2022/01/01 01:55:10;;;;;;;7.30;5.97;;;;;;;;;;4989636;28;20432;-78
2022/01/01 01:57:39;;;;;;;6.20;5.77;;;;;;;;;;4990602;28;20433;-71
2022/01/01 02:00:09;;;;;;;6.27;5.77;;;;;;;;;;4985501;28;20871;-75
2022/01/01 02:02:35;;;;;;;6.27;5.87;;;;;;;;;;4990754;28;20453;-74
2022/01/01 02:05:01;;;;;;;9.47;5.27;;;;;;;;;;4989953;28;20448;-71
2022/01/01 02:07:27;;;;;;;6.23;5.73;;;;;;;;;;4989484;28;20528;-71
2022/01/01 02:09:53;;;;;;;7.73;6.10;;;;;;;;;;4990338;28;20437;-71
2022/01/01 02:12:22;;;;;;;13.03;6.70;;;;;;;;;;4990172;28;20480;-74
2022/01/01 02:17:28;;;;;;;7.70;6.20;;;;;;;;;;4989822;28;20475;-74
2022/01/01 02:19:59;;;;;;;9.23;7.23;;;;;;;;;;4989027;28;20433;-70
2022/01/01 02:22:25;;;;;;;7.87;7.07;;;;;;;;;;4989266;28;20441;-70
2022/01/01 02:24:51;;;;;;;6.77;6.13;;;;;;;;;;4989842;28;20445;-74
2022/01/01 02:27:17;;;;;;;8.57;7.67;;;;;;;;;;4987831;28;20440;-71
2022/01/01 02:29:43;;;;;;;7.40;6.67;;;;;;;;;;4985222;28;20936;-73
2022/01/01 02:32:11;;;;;;;7.50;6.77;;;;;;;;;;4988354;28;20905;-71
2022/01/01 02:34:37;;;;;;;7.03;6.30;;;;;;;;;;4991228;28;20441;-71
2022/01/01 02:37:04;;;;;;;6.60;6.03;;;;;;;;;;4989694;28;20440;-75
2022/01/01 02:39:30;;;;;;;6.83;6.20;;;;;;;;;;4989510;28;20937;-71
2022/01/01 02:41:57;;;;;;;6.70;6.07;;;;;;;;;;4989712;28;20441;-71
2022/01/01 02:44:24;;;;;;;8.00;7.30;;;;;;;;;;4990580;28;20409;-75
2022/01/01 02:46:52;;;;;;;11.90;5.53;;;;;;;;;;4987463;28;20445;-74
2022/01/01 02:49:18;;;;;;;11.40;7.27;;;;;;;;;;4987694;28;20421;-71
2022/01/01 02:51:44;;;;;;;8.00;7.17;;;;;;;;;;4988424;28;20937;-77
2022/01/01 02:54:10;;;;;;;7.37;6.67;;;;;;;;;;4989091;28;20480;-73
2022/01/01 02:56:37;;;;;;;7.20;6.50;;;;;;;;;;4989174;28;20937;-73
2022/01/01 02:59:03;;;;;;;10.00;8.10;;;;;;;;;;4990309;28;20936;-74
2022/01/01 03:01:30;;;;;;;8.07;7.13;;;;;;;;;;4986998;28;20563;-73
2022/01/01 03:03:56;;;;;;;13.50;9.33;;;;;;;;;;4988853;28;20519;-73
2022/01/01 03:06:22;;;;;;;11.27;8.87;;;;;;;;;;4987282;28;20461;-76
2022/01/01 03:08:52;;;;;;;16.17;9.63;;;;;;;;;;4987200;28;20433;-75
2022/01/01 03:11:18;;;;;;;15.20;9.10;;;;;;;;;;4987651;28;20520;-73
2022/01/01 03:13:44;;;;;;;16.77;9.97;;;;;;;;;;4987634;28;20489;-76
2022/01/01 03:16:11;;;;;;;13.53;8.70;;;;;;;;;;4988912;28;20433;-70
2022/01/01 03:18:37;;;;;;;10.30;8.50;;;;;;;;;;4989084;28;20417;-70
2022/01/01 03:21:04;;;;;;;9.33;8.33;;;;;;;;;;4987391;28;20431;-71
2022/01/01 03:23:30;;;;;;;9.97;8.50;;;;;;;;;;4987699;28;20464;-75
2022/01/01 03:25:56;;;;;;;8.83;7.93;;;;;;;;;;4988234;28;20539;-72
2022/01/01 03:28:22;;;;;;;8.70;7.57;;;;;;;;;;4989320;28;20440;-72
2022/01/01 03:30:48;;;;;;;8.07;7.30;;;;;;;;;;4988519;28;20938;-71
2022/01/01 03:33:14;;;;;;;12.43;8.50;;;;;;;;;;4989613;28;20480;-74
2022/01/01 03:35:40;;;;;;;8.43;7.60;;;;;;;;;;4985594;28;20520;-71
2022/01/01 03:38:06;;;;;;;8.47;7.63;;;;;;;;;;4989325;28;20448;-73
2022/01/01 03:40:32;;;;;;;10.77;7.57;;;;;;;;;;4988297;28;20440;-75
2022/01/01 03:42:58;;;;;;;8.70;7.60;;;;;;;;;;4988492;28;20520;-77
2022/01/01 03:45:24;;;;;;;9.37;8.43;;;;;;;;;;4988792;28;20796;-77
2022/01/01 03:47:50;;;;;;;10.30;7.37;;;;;;;;;;4987911;28;20464;-77
2022/01/01 03:50:15;;;;;;;7.57;6.80;;;;;;;;;;4987953;28;20429;-77
2022/01/01 03:52:45;;;;;;;7.50;6.77;;;;;;;;;;4986440;28;20846;-73
2022/01/01 03:55:15;;;;;;;10.07;7.60;;;;;;;;;;4990159;28;20519;-73
2022/01/01 03:57:41;;;;;;;8.30;7.50;;;;;;;;;;4987872;28;20976;-71
2022/01/01 04:00:09;;;;;;;8.27;7.47;;;;;;;;;;4988012;28;20572;-71
2022/01/01 04:02:35;;;;;;;7.33;6.63;;;;;;;;;;4971264;28;20525;-76
2022/01/01 04:05:03;;;;;;;8.97;8.07;;;;;;;;;;4990238;28;20524;-72
2022/01/01 04:07:29;;;;;;;7.97;7.17;;;;;;;;;;4987570;28;20433;-71
2022/01/01 04:09:55;;;;;;;6.83;6.20;;;;;;;;;;4988791;28;21000;-76
2022/01/01 04:12:21;;;;;;;7.30;6.20;;;;;;;;;;4988155;28;21597;-76
2022/01/01 04:14:47;;;;;;;5.80;5.50;;;;;;;;;;4984022;28;20441;-71
2022/01/01 04:17:13;;;;;;;6.70;6.10;;;;;;;;;;4986835;28;20935;-76
2022/01/01 04:19:39;;;;;;;5.90;5.50;;;;;;;;;;4988965;28;20449;-76
2022/01/01 04:22:12;;;;;;;6.30;5.70;;;;;;;;;;4984790;28;20425;-71
2022/01/01 04:24:39;;;;;;;7.50;5.47;;;;;;;;;;4990634;28;20476;-74
2022/01/01 04:27:05;;;;;;;9.53;5.80;;;;;;;;;;4993095;28;20452;-75
2022/01/01 04:29:32;;;;;;;5.57;5.17;;;;;;;;;;4992500;28;20436;-72
2022/01/01 04:31:59;;;;;;;6.57;6.00;;;;;;;;;;4992544;28;20925;-71
2022/01/01 04:34:25;;;;;;;7.53;6.00;;;;;;;;;;4989488;28;20457;-71
2022/01/01 04:37:03;;;;;;;6.60;6.00;;;;;;;;;;4991947;28;20456;-71
2022/01/01 04:39:30;;;;;;;6.20;5.60;;;;;;;;;;4991184;28;20455;-72
2022/01/01 04:41:56;;;;;;;10.43;7.20;;;;;;;;;;4982256;28;20548;-71
2022/01/01 04:44:22;;;;;;;13.63;7.40;;;;;;;;;;4982682;28;20614;-75
2022/01/01 04:46:47;;;;;;;8.87;7.00;;;;;;;;;;4990295;28;20928;-71
2022/01/01 04:49:14;;;;;;;6.50;5.90;;;;;;;;;;4989892;28;20433;-71
2022/01/01 04:51:40;;;;;;;6.70;6.20;;;;;;;;;;4991358;28;20468;-71
2022/01/01 04:54:13;;;;;;;6.37;5.87;;;;;;;;;;4991596;28;20516;-71
2022/01/01 04:56:43;;;;;;;6.17;5.57;;;;;;;;;;4989697;28;20510;-71
2022/01/01 04:59:09;;;;;;;10.20;5.77;;;;;;;;;;4989889;28;20528;-75
2022/01/01 05:01:35;;;;;;;5.67;5.27;;;;;;;;;;4991358;28;20551;-71
2022/01/01 05:04:01;;;;;;;5.47;4.47;;;;;;;;;;4987620;28;21001;-76
2022/01/01 05:06:27;;;;;;;4.83;4.43;;;;;;;;;;4991313;28;20491;-71
2022/01/01 05:08:53;;;;;;;5.10;4.70;;;;;;;;;;4989629;28;20567;-73
2022/01/01 05:11:19;;;;;;;6.67;4.67;;;;;;;;;;4989722;28;20429;-74
2022/01/01 05:13:45;;;;;;;5.87;4.63;;;;;;;;;;4987461;28;20496;-71
2022/01/01 05:16:17;;;;;;;4.93;4.63;;;;;;;;;;4991430;28;20957;-71
2022/01/01 05:18:43;;;;;;;5.40;4.73;;;;;;;;;;4989272;28;20441;-71
2022/01/01 05:21:09;;;;;;;7.23;6.07;;;;;;;;;;4989731;28;20437;-72
2022/01/01 05:23:35;;;;;;;8.70;5.80;;;;;;;;;;4989122;28;20957;-71
2022/01/01 05:26:01;;;;;;;5.70;5.20;;;;;;;;;;4989279;28;20537;-71
2022/01/01 05:28:27;;;;;;;5.90;5.40;;;;;;;;;;4989495;28;20815;-74
2022/01/01 05:30:53;;;;;;;7.33;5.50;;;;;;;;;;4989807;28;20441;-75
2022/01/01 05:33:19;;;;;;;7.20;6.60;;;;;;;;;;4989927;28;20503;-72
2022/01/01 05:35:45;;;;;;;9.20;7.00;;;;;;;;;;4988780;28;20436;-75
2022/01/01 05:38:11;;;;;;;7.27;6.67;;;;;;;;;;4982091;28;20452;-71
2022/01/01 05:40:37;;;;;;;13.73;6.30;;;;;;;;;;4987419;28;20797;-71
2022/01/01 05:43:03;;;;;;;8.43;6.27;;;;;;;;;;4989628;28;20520;-71
2022/01/01 05:45:29;;;;;;;8.90;8.10;;;;;;;;;;4988426;28;20830;-71
2022/01/01 05:47:55;;;;;;;11.33;8.57;;;;;;;;;;4986819;28;20456;-71
2022/01/01 05:50:21;;;;;;;11.40;8.30;;;;;;;;;;4990268;28;20430;-71
2022/01/01 05:52:47;;;;;;;15.47;10.00;;;;;;;;;;4990533;28;20480;-71
2022/01/01 05:55:13;;;;;;;11.30;9.27;;;;;;;;;;4989387;28;20988;-72
2022/01/01 05:57:39;;;;;;;14.43;10.77;;;;;;;;;;4989309;28;20432;-71
2022/01/01 06:00:09;;;;;;;13.37;9.17;;;;;;;;;;4988378;28;20898;-71
2022/01/01 06:02:41;;;;;;;11.80;10.27;;;;;;;;;;4986766;28;20438;-74
2022/01/01 06:05:07;;;;;;;12.90;9.87;;;;;;;;;;4956172;28;20536;-76
2022/01/01 06:07:33;;;;;;;11.27;10.10;;;;;;;;;;4991903;28;20829;-71
2022/01/01 06:09:59;;;;;;;11.13;10.00;;;;;;;;;;4987559;28;20969;-73
2022/01/01 06:12:26;;;;;;;11.73;10.33;;;;;;;;;;4989391;28;20937;-71
2022/01/01 06:14:52;;;;;;;15.20;10.50;;;;;;;;;;4986848;28;20438;-74
2022/01/01 06:17:18;;;;;;;13.33;10.30;;;;;;;;;;4985331;28;20433;-71
2022/01/01 06:19:44;;;;;;;15.80;11.57;;;;;;;;;;4987503;28;20445;-71
2022/01/01 06:22:09;;;;;;;13.87;11.07;;;;;;;;;;4990189;28;20436;-71
2022/01/01 06:24:35;;;;;;;11.53;10.20;;;;;;;;;;4989540;28;20443;-71
2022/01/01 06:27:01;;;;;;;11.87;10.70;;;;;;;;;;4987147;28;20913;-75
2022/01/01 06:29:27;;;;;;;14.60;10.50;;;;;;;;;;4987660;28;20489;-71
2022/01/01 06:31:53;;;;;;;11.20;9.70;;;;;;;;;;4986728;28;20442;-75
2022/01/01 06:34:19;;;;;;;13.47;10.67;;;;;;;;;;4990138;28;20563;-71
2022/01/01 06:36:45;;;;;;;13.93;9.47;;;;;;;;;;4989342;28;20794;-74
2022/01/01 06:39:11;;;;;;;14.73;11.10;;;;;;;;;;4987265;28;20438;-73
2022/01/01 06:41:37;;;;;;;15.13;10.50;;;;;;;;;;4989336;28;20465;-75
2022/01/01 06:44:03;;;;;;;14.50;10.13;;;;;;;;;;4989184;28;20995;-75
2022/01/01 06:46:29;;;;;;;14.20;10.80;;;;;;;;;;4987388;28;20441;-71
2022/01/01 06:48:55;;;;;;;11.30;9.60;;;;;;;;;;4985321;28;20440;-71
2022/01/01 06:51:21;;;;;;;10.87;9.80;;;;;;;;;;4988371;28;20979;-71
2022/01/01 06:53:47;;;;;;;13.17;10.67;;;;;;;;;;4989338;28;20926;-75
2022/01/01 06:56:13;;;;;;;12.20;10.03;;;;;;;;;;4988335;28;20443;-71
2022/01/01 06:58:39;;;;;;;15.83;8.97;;;;;;;;;;4989064;28;20476;-76
2022/01/01 07:01:05;;;;;;;12.50;9.43;;;;;;;;;;4987565;28;20491;-75
2022/01/01 07:03:31;;;;;;;13.30;9.53;;;;;;;;;;4986996;28;20444;-72
2022/01/01 07:05:57;;;;;;;11.10;9.63;;;;;;;;;;4988409;28;20441;-75
2022/01/01 07:08:23;;;;;;;9.40;8.43;;;;;;;;;;4988298;28;20433;-73
2022/01/01 07:10:49;;;;;;;15.70;9.43;;;;;;;;;;4986133;28;20788;-76
2022/01/01 07:13:16;;;;;;;12.97;8.90;;;;;;;;;;4988743;28;21621;-71
2022/01/01 07:15:42;;;;;;;9.70;8.70;;;;;;;;;;4987383;28;20433;-73
2022/01/01 07:18:08;;;;;;;10.03;9.00;;;;;;;;;;4986204;28;20512;-74
2022/01/01 07:20:34;;;;;;;8.30;7.27;;;;;;;;;;4985512;28;20523;-72
2022/01/01 07:23:00;;;;;;;9.73;8.20;;;;;;;;;;4990365;28;20424;-71
2022/01/01 07:25:27;;;;;;;9.17;7.97;;;;;;;;;;4988586;28;20878;-73
2022/01/01 07:27:53;;;;;;;14.80;8.57;;;;;;;;;;4984420;28;20527;-75
2022/01/01 07:30:19;;;;;;;9.13;7.97;;;;;;;;;;4987685;28;20520;-75
2022/01/01 07:32:46;;;;;;;9.13;8.20;;;;;;;;;;4984186;28;20486;-71
2022/01/01 07:35:13;;;;;;;9.07;8.17;;;;;;;;;;4989748;28;20858;-73
2022/01/01 07:37:39;;;;;;;7.20;6.60;;;;;;;;;;4985253;28;20485;-71
2022/01/01 07:40:06;;;;;;;7.77;7.07;;;;;;;;;;4986497;28;20457;-76
2022/01/01 07:42:32;;;;;;;12.70;7.33;;;;;;;;;;4984540;28;20437;-71
2022/01/01 07:44:59;;;;;;;8.33;7.60;;;;;;;;;;4982965;28;20528;-76
2022/01/01 07:47:25;;;;;;;13.30;8.83;;;;;;;;;;4986726;28;20963;-71
2022/01/01 07:49:51;;;;;;;9.33;8.47;;;;;;;;;;4987273;28;20532;-71
2022/01/01 07:52:17;;;;;;;9.00;7.83;;;;;;;;;;4988610;28;20797;-71
2022/01/01 07:54:43;;;;;;;15.10;8.20;;;;;;;;;;4986878;28;20455;-71
2022/01/01 07:57:09;;;;;;;15.87;8.27;;;;;;;;;;4983650;28;20484;-73
2022/01/01 07:59:35;;;;;;;9.10;8.17;;;;;;;;;;4991975;28;20429;-71
2022/01/01 08:02:01;;;;;;;10.40;6.90;;;;;;;;;;4991175;28;20444;-74
2022/01/01 08:04:27;;;;;;;8.90;8.00;;;;;;;;;;4991214;28;20444;-74
2022/01/01 08:06:53;;;;;;;9.80;8.33;;;;;;;;;;4992342;28;20426;-72
2022/01/01 08:09:19;;;;;;;9.47;8.40;;;;;;;;;;4993066;28;20423;-71
2022/01/01 08:11:45;;;;;;;9.03;8.07;;;;;;;;;;4986439;28;20834;-71
2022/01/01 08:14:11;;;;;;;8.63;7.93;;;;;;;;;;4987448;28;20492;-74
2022/01/01 08:16:56;;;;;;;8.40;7.60;;;;;;;;;;4991323;28;20514;-71
2022/01/01 08:19:22;;;;;;;8.37;7.60;;;;;;;;;;4992428;28;20492;-71
2022/01/01 08:21:48;;;;;;;7.90;7.30;;;;;;;;;;4990663;28;20452;-75
2022/01/01 08:24:14;;;;;;;9.10;7.80;;;;;;;;;;4988807;28;20433;-71
2022/01/01 08:26:40;;;;;;;11.20;9.00;;;;;;;;;;4991770;28;20464;-74
2022/01/01 08:29:06;;;;;;;9.37;8.37;;;;;;;;;;4989093;28;20508;-75
2022/01/01 08:31:32;;;;;;;11.33;8.80;;;;;;;;;;4987163;28;20809;-71
2022/01/01 08:33:58;;;;;;;9.60;8.53;;;;;;;;;;4989962;28;20551;-76
2022/01/01 08:36:24;;;;;;;9.43;6.90;;;;;;;;;;4991658;28;21019;-76
2022/01/01 08:38:50;;;;;;;8.40;7.50;;;;;;;;;;4990812;28;20919;-71
2022/01/01 08:41:16;;;;;;;13.10;10.00;;;;;;;;;;4991180;28;20706;-77
2022/01/01 08:43:42;;;;;;;12.07;9.63;;;;;;;;;;4987055;28;20429;-76
2022/01/01 08:46:08;;;;;;;11.37;9.50;;;;;;;;;;4989857;28;20786;-71
2022/01/01 08:48:34;;;;;;;10.03;8.90;;;;;;;;;;4987517;28;20457;-75
2022/01/01 08:51:11;;;;;;;12.33;11.07;;;;;;;;;;4990759;28;20433;-76
2022/01/01 08:53:37;;;;;;;14.67;10.00;;;;;;;;;;4988005;28;20487;-74
2022/01/01 08:56:07;;;;;;;14.80;11.30;;;;;;;;;;4990417;28;20455;-71
2022/01/01 08:58:33;;;;;;;16.40;11.77;;;;;;;;;;4989271;28;20452;-71
2022/01/01 09:00:59;;;;;;;17.70;11.20;;;;;;;;;;4990903;28;20560;-71
2022/01/01 09:03:25;;;;;;;16.30;12.50;;;;;;;;;;4991479;28;20868;-71
2022/01/01 09:05:51;;;;;;;15.40;13.43;;;;;;;;;;4986883;28;20433;-71
2022/01/01 09:08:17;;;;;;;14.50;12.73;;;;;;;;;;4990617;28;20803;-71
2022/01/01 09:10:43;;;;;;;17.30;12.20;;;;;;;;;;4989425;28;20528;-71
2022/01/01 09:13:09;;;;;;;19.00;14.10;;;;;;;;;;4986443;28;21130;-70
2022/01/01 09:15:35;;;;;;;23.10;14.77;;;;;;;;;;4988041;28;20861;-71
2022/01/01 09:18:01;;;;;;;27.53;15.87;;;;;;;;;;4991120;28;20446;-71
2022/01/01 09:20:27;;;;;;;22.83;16.67;;;;;;;;;;4988823;28;20508;-71
2022/01/01 09:22:53;;;;;;;19.63;14.77;;;;;;;;;;4991545;28;20429;-71
2022/01/01 09:25:19;;;;;;;20.90;14.70;;;;;;;;;;4988319;28;20448;-71
2022/01/01 09:27:45;;;;;;;19.50;13.77;;;;;;;;;;4986829;28;20812;-71
2022/01/01 09:30:11;;;;;;;16.80;13.20;;;;;;;;;;4990291;28;20433;-70
2022/01/01 09:32:38;;;;;;;18.17;13.97;;;;;;;;;;4988242;28;20483;-71
2022/01/01 09:35:04;;;;;;;23.77;14.40;;;;;;;;;;4988479;28;20444;-72
2022/01/01 09:37:32;;;;;;;23.13;14.13;;;;;;;;;;4988723;28;20503;-71
2022/01/01 09:39:59;;;;;;;23.50;14.77;;;;;;;;;;4987188;28;20437;-70
2022/01/01 09:42:25;;;;;;;17.90;13.60;;;;;;;;;;4989160;28;20441;-72
2022/01/01 09:44:52;;;;;;;24.07;14.60;;;;;;;;;;4989752;28;20465;-71
2022/01/01 09:47:19;;;;;;;16.70;13.57;;;;;;;;;;4989622;28;20448;-70
2022/01/01 09:49:45;;;;;;;17.90;14.17;;;;;;;;;;4990067;28;20468;-72
2022/01/01 09:52:14;;;;;;;16.67;13.03;;;;;;;;;;4989313;28;20453;-73
2022/01/01 09:54:40;;;;;;;22.93;13.67;;;;;;;;;;4987221;28;20559;-70
2022/01/01 09:57:06;;;;;;;16.93;14.47;;;;;;;;;;4983184;28;22121;-71
2022/01/01 09:59:32;;;;;;;21.07;15.77;;;;;;;;;;4984669;28;20468;-71
2022/01/01 10:01:58;;;;;;;18.33;13.77;;;;;;;;;;4990156;28;20480;-71
2022/01/01 10:04:24;;;;;;;16.77;12.90;;;;;;;;;;4990078;28;20587;-72
2022/01/01 10:07:17;;;;;;;22.10;14.07;;;;;;;;;;4991478;28;20490;-72
2022/01/01 10:09:43;;;;;;;23.00;14.60;;;;;;;;;;4986336;28;20789;-70
2022/01/01 10:12:10;;;;;;;20.07;14.23;;;;;;;;;;4989394;28;20913;-71
2022/01/01 10:14:36;;;;;;;21.87;16.00;;;;;;;;;;4986960;28;20445;-71
2022/01/01 10:17:08;;;;;;;19.77;14.20;;;;;;;;;;4988881;28;20437;-71
2022/01/01 10:19:34;;;;;;;20.17;14.60;;;;;;;;;;4987130;28;20441;-71
2022/01/01 10:22:05;;;;;;;19.27;15.80;;;;;;;;;;4984426;28;20452;-71
2022/01/01 10:27:42;;;;;;;16.87;12.90;;;;;;;;;;4985365;28;20448;-71
2022/01/01 10:30:03;;;;;;;17.50;12.47;;;;;;;;;;4989063;28;20201;-71
2022/01/01 10:32:29;;;;;;;19.10;15.20;;;;;;;;;;4984071;28;20534;-71
2022/01/01 10:34:55;;;;;;;21.70;14.53;;;;;;;;;;4983599;28;20444;-71
2022/01/01 10:37:24;;;;;;;20.13;13.67;;;;;;;;;;4991025;28;20428;-71
2022/01/01 10:39:52;;;;;;;22.80;13.37;;;;;;;;;;4984780;28;20961;-72
2022/01/01 10:42:18;;;;;;;20.93;14.73;;;;;;;;;;4986794;28;20460;-72
2022/01/01 10:44:48;;;;;;;18.53;14.30;;;;;;;;;;4985898;28;20802;-71
2022/01/01 10:47:31;;;;;;;16.50;14.33;;;;;;;;;;4990127;28;20475;-71
2022/01/01 10:50:14;;;;;;;18.10;14.97;;;;;;;;;;4988652;28;21028;-72
2022/01/01 10:52:47;;;;;;;27.93;16.50;;;;;;;;;;4987710;28;20479;-71
2022/01/01 10:55:14;;;;;;;19.10;15.20;;;;;;;;;;4986071;28;20440;-72
2022/01/01 10:57:41;;;;;;;19.47;15.00;;;;;;;;;;4985292;28;20567;-71
2022/01/01 11:00:18;;;;;;;20.50;14.20;;;;;;;;;;4988918;28;20587;-71
2022/01/01 11:02:49;;;;;;;19.43;14.33;;;;;;;;;;4988072;28;20653;-72
2022/01/01 11:05:15;;;;;;;22.03;13.73;;;;;;;;;;4985877;28;20436;-71
2022/01/01 11:07:52;;;;;;;22.27;14.70;;;;;;;;;;4984826;28;20456;-75
2022/01/01 11:10:19;;;;;;;13.40;11.33;;;;;;;;;;4986206;28;20436;-71
2022/01/01 11:12:46;;;;;;;17.30;12.23;;;;;;;;;;4979105;28;20996;-72
2022/01/01 11:15:12;;;;;;;19.13;12.30;;;;;;;;;;4988234;28;20437;-72
2022/01/01 11:17:38;;;;;;;13.30;10.67;;;;;;;;;;4984618;28;20433;-72
2022/01/01 11:20:06;;;;;;;24.20;12.47;;;;;;;;;;4990042;28;20428;-72
2022/01/01 11:22:33;;;;;;;12.70;10.57;;;;;;;;;;4988412;28;20449;-71
2022/01/01 11:24:59;;;;;;;14.03;10.80;;;;;;;;;;4988613;28;20487;-71
2022/01/01 11:27:28;;;;;;;12.67;10.23;;;;;;;;;;4972949;28;20437;-71
2022/01/01 11:29:56;;;;;;;13.23;11.07;;;;;;;;;;4986700;28;20810;-72
2022/01/01 11:32:28;;;;;;;10.23;9.20;;;;;;;;;;4988799;28;20480;-73
2022/01/01 11:34:54;;;;;;;11.27;10.07;;;;;;;;;;4989866;28;20433;-71
2022/01/01 11:37:22;;;;;;;12.90;10.93;;;;;;;;;;4989039;28;20437;-86
2022/01/01 11:39:53;;;;;;;10.33;9.43;;;;;;;;;;4987706;28;20469;-71
2022/01/01 11:42:20;;;;;;;12.23;10.70;;;;;;;;;;4986521;28;20437;-72
2022/01/01 11:44:54;;;;;;;17.90;12.60;;;;;;;;;;4987592;28;21069;-72
2022/01/01 11:47:21;;;;;;;24.33;10.33;;;;;;;;;;4988327;28;20852;-72
2022/01/01 11:49:48;;;;;;;14.37;12.60;;;;;;;;;;4989505;28;21000;-72
2022/01/01 11:52:33;;;;;;;11.87;10.67;;;;;;;;;;4988966;28;20421;-72
2022/01/01 11:55:00;;;;;;;14.13;11.10;;;;;;;;;;4988269;28;20539;-72
2022/01/01 11:57:27;;;;;;;11.33;10.00;;;;;;;;;;4988787;28;20933;-72
2022/01/01 12:00:08;;;;;;;11.03;9.70;;;;;;;;;;4955430;28;20437;-72
2022/01/01 12:02:35;;;;;;;11.07;9.70;;;;;;;;;;4988342;28;20970;-72
2022/01/01 12:05:21;;;;;;;10.43;9.13;;;;;;;;;;4989270;28;20997;-72
2022/01/01 12:07:48;;;;;;;13.57;9.20;;;;;;;;;;4987952;28;20504;-72
2022/01/01 12:10:16;;;;;;;8.90;8.10;;;;;;;;;;4985477;28;20490;-72
2022/01/01 12:12:58;;;;;;;9.33;7.50;;;;;;;;;;4988208;28;20476;-71
2022/01/01 12:15:24;;;;;;;11.38;10.18;;;;;;;;;;4989952;28;20463;-72
2022/01/01 12:18:10;;;;;;;11.53;9.57;;;;;;;;;;4986436;28;20197;-72
2022/01/01 12:20:39;;;;;;;9.00;7.67;;;;;;;;;;4985466;28;20437;-71
2022/01/01 12:23:19;;;;;;;12.50;8.93;;;;;;;;;;4979343;28;20544;-72
2022/01/01 12:25:46;;;;;;;12.93;10.10;;;;;;;;;;4978988;28;20436;-72
2022/01/01 12:28:16;;;;;;;9.80;8.77;;;;;;;;;;4984353;28;20444;-72
2022/01/01 12:30:42;;;;;;;7.80;7.03;;;;;;;;;;4986631;28;20520;-72
2022/01/01 12:33:10;;;;;;;11.77;8.50;;;;;;;;;;4986725;28;20563;-72
2022/01/01 12:35:47;;;;;;;13.73;7.63;;;;;;;;;;4988085;28;20433;-72
2022/01/01 12:38:14;;;;;;;8.90;8.00;;;;;;;;;;4970601;28;20425;-71
2022/01/01 12:40:57;;;;;;;10.17;7.40;;;;;;;;;;4990086;28;20500;-71
2022/01/01 12:43:23;;;;;;;7.93;7.27;;;;;;;;;;4988844;28;20463;-71
2022/01/01 12:45:50;;;;;;;10.87;7.27;;;;;;;;;;4976573;28;20971;-72
2022/01/01 12:48:18;;;;;;;9.53;7.10;;;;;;;;;;4989382;28;20441;-72
2022/01/01 12:50:44;;;;;;;6.07;5.60;;;;;;;;;;4984130;28;20460;-71
2022/01/01 12:53:12;;;;;;;8.80;6.30;;;;;;;;;;4987025;28;20488;-71
2022/01/01 12:55:37;;;;;;;9.95;6.95;;;;;;;;;;4992355;28;20413;-72
2022/01/01 12:58:08;;;;;;;5.80;5.40;;;;;;;;;;4989990;28;20552;-72
2022/01/01 13:00:37;;;;;;;6.13;5.70;;;;;;;;;;4988811;28;20828;-72
2022/01/01 13:03:03;;;;;;;6.97;6.27;;;;;;;;;;4988409;28;20450;-73
2022/01/01 13:05:29;;;;;;;5.60;5.10;;;;;;;;;;4988833;28;20933;-71
2022/01/01 13:07:55;;;;;;;5.70;5.20;;;;;;;;;;4991479;28;20528;-72
2022/01/01 13:10:24;;;;;;;5.47;5.03;;;;;;;;;;4991675;28;20459;-72
2022/01/01 13:12:50;;;;;;;11.90;5.73;;;;;;;;;;4989778;28;21246;-72
2022/01/01 13:15:18;;;;;;;5.47;4.97;;;;;;;;;;4989767;28;20425;-71
2022/01/01 13:17:49;;;;;;;6.63;6.00;;;;;;;;;;4985302;28;20445;-72
2022/01/01 13:20:15;;;;;;;6.10;5.53;;;;;;;;;;4957519;28;20531;-72
2022/01/01 13:22:41;;;;;;;6.03;5.37;;;;;;;;;;4986336;28;20488;-72
2022/01/01 13:25:07;;;;;;;9.53;4.13;;;;;;;;;;4987068;28;20523;-72
2022/01/01 13:27:34;;;;;;;5.30;4.90;;;;;;;;;;4987027;28;20522;-72
2022/01/01 13:30:00;;;;;;;4.77;4.50;;;;;;;;;;4966326;28;20447;-72
2022/01/01 13:32:27;;;;;;;4.13;3.83;;;;;;;;;;4987714;28;20523;-72
2022/01/01 13:34:53;;;;;;;9.43;4.60;;;;;;;;;;4991958;28;20771;-72
2022/01/01 13:37:23;;;;;;;4.93;4.60;;;;;;;;;;4985491;28;20429;-72
2022/01/01 13:39:51;;;;;;;9.00;4.40;;;;;;;;;;4990231;28;20437;-72
2022/01/01 13:42:18;;;;;;;8.87;4.70;;;;;;;;;;4989352;28;20429;-72
2022/01/01 13:44:44;;;;;;;4.63;4.37;;;;;;;;;;4987193;28;20437;-72
2022/01/01 13:47:13;;;;;;;5.57;5.07;;;;;;;;;;4985903;28;20786;-72
2022/01/01 13:49:56;;;;;;;5.80;5.40;;;;;;;;;;4990013;28;20462;-72
2022/01/01 13:52:23;;;;;;;4.90;4.50;;;;;;;;;;4989725;28;20444;-72
2022/01/01 13:54:59;;;;;;;6.17;5.27;;;;;;;;;;4991088;28;20450;-72
2022/01/01 13:57:28;;;;;;;12.10;6.70;;;;;;;;;;4989840;28;20429;-72
2022/01/01 13:59:54;;;;;;;14.17;8.20;;;;;;;;;;4986569;28;20554;-71
2022/01/01 14:02:22;;;;;;;10.93;9.70;;;;;;;;;;4987406;28;20524;-73
2022/01/01 14:04:48;;;;;;;11.10;9.50;;;;;;;;;;4985183;28;21048;-72
2022/01/01 14:07:15;;;;;;;9.33;8.40;;;;;;;;;;4984293;28;20511;-72
2022/01/01 14:09:57;;;;;;;10.43;9.43;;;;;;;;;;4989520;28;20524;-71
2022/01/01 14:12:24;;;;;;;11.80;9.93;;;;;;;;;;4991007;28;20425;-73
2022/01/01 14:14:50;;;;;;;12.13;9.90;;;;;;;;;;4990576;28;20495;-73
2022/01/01 14:17:16;;;;;;;14.30;10.20;;;;;;;;;;4988822;28;20438;-71
2022/01/01 14:19:42;;;;;;;19.17;9.70;;;;;;;;;;4983569;28;20988;-72
2022/01/01 14:22:10;;;;;;;13.40;10.23;;;;;;;;;;4986633;28;20829;-72
2022/01/01 14:24:48;;;;;;;15.03;13.33;;;;;;;;;;4988859;28;20442;-72
2022/01/01 14:27:14;;;;;;;11.67;10.10;;;;;;;;;;4988516;28;20436;-72
2022/01/01 14:29:40;;;;;;;12.73;9.60;;;;;;;;;;4987385;28;20849;-71
2022/01/01 14:32:06;;;;;;;13.37;9.60;;;;;;;;;;4984560;28;20445;-73
2022/01/01 14:34:32;;;;;;;12.00;10.70;;;;;;;;;;4979395;28;20547;-72
2022/01/01 14:36:58;;;;;;;10.67;9.67;;;;;;;;;;4988426;28;20445;-72
2022/01/01 14:39:24;;;;;;;12.60;10.37;;;;;;;;;;4985538;28;20446;-72